Time;durP1;ratioP1;P1;durP2;ratioP2;P2;SDS_P1;SDS_P2;PMS_P1;PMS_P2;Temp;Humidity;BMP_temperature;BMP_pressure;BME280_temperature;BME280_humidity;BME280_pressure;Samples;Min_cycle;Max_cycle;Signal;HPM_P1;HPM_P2
2022/05/21 00:01:20;;;;;;;23.52;12.57;;;;;;;9.98;100.00;101834.81;5142169;27;20019;-67
2022/05/21 00:03:46;;;;;;;23.98;12.35;;;;;;;9.96;100.00;101825.97;5139190;27;20418;-65
2022/05/21 00:06:11;;;;;;;24.48;12.45;;;;;;;9.94;100.00;101823.25;5142522;27;20502;-63
2022/05/21 00:08:36;;;;;;;23.73;12.23;;;;;;;9.93;100.00;101836.44;5139143;27;20373;-69
2022/05/21 00:11:02;;;;;;;23.52;11.70;;;;;;;9.89;100.00;101831.97;5142939;27;20047;-64
2022/05/21 00:13:28;;;;;;;23.10;11.70;;;;;;;9.88;100.00;101831.06;5142728;27;20019;-69
2022/05/21 00:15:53;;;;;;;23.58;11.50;;;;;;;9.89;100.00;101832.84;5138995;27;20026;-62
2022/05/21 00:18:20;;;;;;;25.40;11.63;;;;;;;9.89;100.00;101837.25;5139090;27;20050;-66
2022/05/21 00:20:48;;;;;;;22.60;11.73;;;;;;;9.83;100.00;101830.06;5140206;27;20015;-65
2022/05/21 00:23:30;;;;;;;23.38;11.38;;;;;;;9.82;100.00;101830.94;5141927;27;20027;-68
2022/05/21 00:26:01;;;;;;;23.33;10.83;;;;;;;9.81;100.00;101836.16;5142062;27;20023;-67
2022/05/21 00:28:27;;;;;;;23.13;11.02;;;;;;;9.82;100.00;101830.94;5140206;27;20092;-66
2022/05/21 00:30:53;;;;;;;22.77;10.93;;;;;;;9.80;100.00;101831.75;5139295;27;20027;-63
2022/05/21 00:33:18;;;;;;;22.65;10.30;;;;;;;9.73;100.00;101828.09;5140708;27;20695;-62
2022/05/21 00:35:44;;;;;;;22.02;9.50;;;;;;;9.75;100.00;101832.50;5141726;27;20102;-63
2022/05/21 00:38:10;;;;;;;22.35;10.07;;;;;;;9.82;100.00;101835.31;5119663;27;20034;-68
2022/05/21 00:40:36;;;;;;;22.90;9.82;;;;;;;9.86;100.00;101842.44;5139932;27;20072;-63
2022/05/21 00:43:02;;;;;;;21.40;9.10;;;;;;;9.92;100.00;101834.69;5138300;27;20092;-63
2022/05/21 00:45:27;;;;;;;21.08;9.18;;;;;;;9.99;100.00;101831.31;5140850;27;20031;-63
2022/05/21 00:47:53;;;;;;;20.55;8.75;;;;;;;10.04;100.00;101834.06;5118236;27;20041;-62
2022/05/21 00:50:22;;;;;;;22.45;8.55;;;;;;;10.08;100.00;101842.09;5139370;27;20017;-65
2022/05/21 00:52:48;;;;;;;21.98;8.35;;;;;;;10.15;100.00;101844.84;5137407;27;20181;-64
2022/05/21 00:55:22;;;;;;;20.88;8.00;;;;;;;10.18;100.00;101847.56;5138797;27;20018;-63
2022/05/21 00:59:47;;;;;;;21.88;8.48;;;;;;;10.19;100.00;101841.41;5135752;27;20522;-66
2022/05/21 01:00:40;;;;;;;21.23;7.80;;;;;;;10.23;100.00;101844.16;5134524;27;20035;-64
2022/05/21 01:03:06;;;;;;;21.40;7.75;;;;;;;10.26;100.00;101838.06;5140371;27;20027;-64
2022/05/21 01:05:31;;;;;;;19.63;7.18;;;;;;;10.28;100.00;101841.63;5136561;27;20042;-65
2022/05/21 01:07:58;;;;;;;19.77;7.40;;;;;;;10.29;100.00;101835.47;5138909;27;20407;-64
2022/05/21 01:10:27;;;;;;;20.27;7.40;;;;;;;10.28;100.00;101836.31;5144113;27;20080;-63
2022/05/21 01:12:56;;;;;;;21.30;7.18;;;;;;;10.31;100.00;101841.69;5138722;27;20034;-63
2022/05/21 01:15:32;;;;;;;19.75;6.63;;;;;;;10.31;100.00;101841.69;5136791;27;20027;-64
2022/05/21 01:17:58;;;;;;;20.17;7.13;;;;;;;10.32;100.00;101832.91;5138629;27;20047;-66
2022/05/21 01:20:44;;;;;;;20.30;6.82;;;;;;;10.33;100.00;101842.63;5140670;27;20468;-63
2022/05/21 01:23:10;;;;;;;20.23;6.68;;;;;;;10.33;100.00;101832.03;5136724;27;20026;-66
2022/05/21 01:25:38;;;;;;;20.05;6.75;;;;;;;10.39;100.00;101839.25;5140752;27;20126;-63
2022/05/21 01:28:04;;;;;;;19.90;6.45;;;;;;;10.39;100.00;101834.84;5139501;27;20023;-65
2022/05/21 01:30:40;;;;;;;20.65;6.38;;;;;;;10.37;100.00;101830.38;5140466;27;20027;-63
2022/05/21 01:33:08;;;;;;;20.15;6.30;;;;;;;10.38;100.00;101834.81;5138201;27;20414;-63
2022/05/21 01:35:34;;;;;;;20.67;6.28;;;;;;;10.41;100.00;101837.50;5139818;27;20032;-64
2022/05/21 01:38:00;;;;;;;20.42;6.57;;;;;;;10.39;100.00;101829.56;5138433;27;20030;-63
2022/05/21 01:40:26;;;;;;;20.83;6.80;;;;;;;10.39;100.00;101824.28;5118383;27;20557;-63
2022/05/21 01:45:36;;;;;;;20.85;6.68;;;;;;;10.42;100.00;101819.03;5137154;27;20046;-65
2022/05/21 01:48:03;;;;;;;19.65;6.53;;;;;;;10.45;100.00;101824.38;5137805;27;20019;-64
2022/05/21 01:50:30;;;;;;;20.55;6.70;;;;;;;10.48;100.00;101828.84;5139810;27;20023;-65
2022/05/21 01:52:56;;;;;;;20.45;6.65;;;;;;;10.48;100.00;101817.41;5138838;27;20016;-63
2022/05/21 01:55:21;;;;;;;21.65;7.10;;;;;;;10.50;100.00;101820.94;5140157;27;20026;-63
2022/05/21 01:57:46;;;;;;;20.77;7.00;;;;;;;10.52;100.00;101819.25;5141591;27;20015;-64
2022/05/21 02:00:13;;;;;;;21.08;6.65;;;;;;;10.54;100.00;101817.50;5140347;27;20019;-62
2022/05/21 02:02:39;;;;;;;22.23;7.18;;;;;;;10.53;100.00;101826.28;5138886;27;20094;-62
2022/05/21 02:05:05;;;;;;;21.83;7.55;;;;;;;10.56;100.00;101826.38;5141534;27;20470;-63
2022/05/21 02:07:30;;;;;;;21.30;7.22;;;;;;;10.57;100.00;101822.84;5140695;27;20027;-63
2022/05/21 02:09:56;;;;;;;22.23;7.32;;;;;;;10.57;100.00;101829.06;5136635;27;20138;-65
2022/05/21 02:12:21;;;;;;;22.63;7.75;;;;;;;10.60;100.00;101822.91;5140028;27;20422;-65
2022/05/21 02:14:47;;;;;;;24.30;7.45;;;;;;;10.62;100.00;101831.78;5134634;27;20450;-62
2022/05/21 02:17:12;;;;;;;23.48;7.97;;;;;;;10.62;100.00;101831.78;5138841;27;20458;-63
2022/05/21 02:19:38;;;;;;;22.15;7.07;;;;;;;10.62;100.00;101829.16;5117026;28;20542;-62
2022/05/21 02:22:03;;;;;;;20.67;7.20;;;;;;;10.63;100.00;101833.59;5137730;27;20534;-63
2022/05/21 02:24:29;;;;;;;21.95;7.10;;;;;;;10.64;100.00;101841.53;5141862;27;20076;-62
2022/05/21 02:26:54;;;;;;;21.73;7.40;;;;;;;10.63;100.00;101836.22;5137253;27;20105;-64
2022/05/21 02:29:19;;;;;;;21.17;6.93;;;;;;;10.66;100.00;101836.28;5140559;27;20029;-63
2022/05/21 02:31:45;;;;;;;22.77;7.25;;;;;;;10.64;100.00;101841.53;5140744;27;20015;-62
2022/05/21 02:34:10;;;;;;;22.02;7.15;;;;;;;10.65;100.00;101837.13;5132237;27;20024;-62
2022/05/21 02:39:28;;;;;;;21.10;7.10;;;;;;;10.67;100.00;101835.41;5138752;27;20072;-64
2022/05/21 02:41:58;;;;;;;21.73;7.40;;;;;;;10.66;100.00;101831.00;5137008;27;20027;-62
2022/05/21 02:44:23;;;;;;;21.60;6.80;;;;;;;10.64;100.00;101820.38;5138217;27;20470;-62
2022/05/21 02:46:48;;;;;;;21.75;7.32;;;;;;;10.62;100.00;101832.66;5137178;27;20080;-63
2022/05/21 02:49:14;;;;;;;22.52;7.28;;;;;;;10.63;100.00;101837.09;5136235;27;20103;-63
2022/05/21 02:51:39;;;;;;;22.45;7.05;;;;;;;10.65;100.00;101834.50;5139534;27;20029;-63
2022/05/21 02:54:06;;;;;;;22.63;7.07;;;;;;;10.65;100.00;101842.41;5134377;27;20462;-63
2022/05/21 02:56:33;;;;;;;23.83;7.38;;;;;;;10.64;100.00;101840.63;5138195;27;20124;-63
2022/05/21 02:58:58;;;;;;;22.13;7.45;;;;;;;10.61;100.00;101833.53;5136853;27;20024;-63
2022/05/21 03:01:23;;;;;;;21.58;7.18;;;;;;;10.62;100.00;101837.94;5138665;27;20022;-64
2022/05/21 03:03:49;;;;;;;21.67;7.30;;;;;;;10.62;100.00;101834.44;5139267;27;20027;-65
2022/05/21 03:06:14;;;;;;;19.60;7.10;;;;;;;10.63;100.00;101833.59;5135644;27;20020;-65
2022/05/21 03:11:23;;;;;;;25.73;8.15;;;;;;;10.61;100.00;101832.63;5139348;27;20059;-63
2022/05/21 03:13:48;;;;;;;23.65;7.50;;;;;;;10.64;100.00;101841.53;5136170;27;20110;-62
2022/05/21 03:16:14;;;;;;;22.67;7.68;;;;;;;10.62;100.00;101843.25;5137315;27;20386;-62
2022/05/21 03:18:39;;;;;;;22.98;7.65;;;;;;;10.62;100.00;101831.78;5137405;27;20054;-63
2022/05/21 03:21:05;;;;;;;22.42;8.07;;;;;;;10.60;100.00;101837.03;5140750;27;20015;-63
2022/05/21 03:23:30;;;;;;;23.55;7.53;;;;;;;10.65;100.00;101831.84;5134785;27;20385;-63
2022/05/21 03:25:56;;;;;;;24.42;8.30;;;;;;;10.63;100.00;101836.22;5116529;27;20042;-63
2022/05/21 03:28:21;;;;;;;22.80;8.15;;;;;;;10.63;100.00;101830.94;5134792;27;20030;-62
2022/05/21 03:30:47;;;;;;;22.17;8.50;;;;;;;10.64;100.00;101830.06;5139524;27;20023;-63
2022/05/21 03:33:13;;;;;;;25.80;8.88;;;;;;;10.61;100.00;101833.53;5140149;27;20493;-63
2022/05/21 03:35:41;;;;;;;24.23;8.70;;;;;;;10.61;100.00;101837.94;5142423;27;20050;-62
2022/05/21 03:38:07;;;;;;;25.20;8.82;;;;;;;10.65;100.00;101837.13;5141193;27;20106;-63
2022/05/21 03:40:33;;;;;;;22.85;8.45;;;;;;;10.68;100.00;101841.59;5141373;27;20441;-65
2022/05/21 03:42:58;;;;;;;24.38;8.65;;;;;;;10.68;100.00;101844.25;5140918;27;20023;-63
2022/05/21 03:45:24;;;;;;;24.23;9.07;;;;;;;10.64;100.00;101846.84;5143664;27;20432;-63
2022/05/21 03:47:50;;;;;;;23.33;8.70;;;;;;;10.66;100.00;101838.94;5142756;27;20070;-63
2022/05/21 03:50:19;;;;;;;24.67;9.27;;;;;;;10.63;100.00;101839.75;5138370;27;20023;-63
2022/05/21 03:52:45;;;;;;;25.02;9.07;;;;;;;10.63;100.00;101841.50;5142010;27;20057;-62
2022/05/21 03:55:10;;;;;;;23.33;9.02;;;;;;;10.64;100.00;101848.56;5137496;27;20473;-62
2022/05/21 03:57:36;;;;;;;26.52;9.57;;;;;;;10.64;100.00;101848.56;5138403;27;20023;-63
2022/05/21 04:00:05;;;;;;;24.65;9.32;;;;;;;10.66;100.00;101854.78;5139737;27;20023;-63
2022/05/21 04:02:32;;;;;;;23.92;8.80;;;;;;;10.66;100.00;101854.78;5140591;27;20478;-62
2022/05/21 04:04:58;;;;;;;24.52;8.48;;;;;;;10.66;100.00;101849.50;5141071;27;20044;-63
2022/05/21 04:07:24;;;;;;;23.45;8.10;;;;;;;10.62;100.00;101839.72;5141381;27;20023;-63
2022/05/21 04:09:49;;;;;;;24.23;9.30;;;;;;;10.66;100.00;101848.59;5140323;27;20015;-62
2022/05/21 04:12:14;;;;;;;23.17;8.40;;;;;;;10.63;100.00;101854.72;5140709;27;20385;-64
2022/05/21 04:14:40;;;;;;;24.55;8.70;;;;;;;10.67;100.00;101853.03;5138177;27;20480;-62
2022/05/21 04:17:10;;;;;;;24.77;8.73;;;;;;;10.66;100.00;101856.53;5140550;27;20095;-63
2022/05/21 04:19:36;;;;;;;25.08;9.02;;;;;;;10.67;100.00;101853.91;5138697;27;20035;-63
2022/05/21 04:22:02;;;;;;;26.45;9.32;;;;;;;10.68;100.00;101861.00;5143078;27;20038;-65
2022/05/21 04:24:27;;;;;;;25.98;9.07;;;;;;;10.71;100.00;101868.09;5139963;27;20031;-63
2022/05/21 04:26:53;;;;;;;24.65;9.75;;;;;;;10.71;100.00;101863.69;5140519;27;20030;-63
2022/05/21 04:29:19;;;;;;;25.08;9.45;;;;;;;10.73;100.00;101869.94;5141673;27;20023;-64
2022/05/21 04:31:45;;;;;;;25.00;8.68;;;;;;;10.77;100.00;101876.16;5141538;27;20019;-63
2022/05/21 04:34:11;;;;;;;26.17;9.50;;;;;;;10.76;100.00;101871.72;5142550;27;20029;-63
2022/05/21 04:36:36;;;;;;;24.02;9.25;;;;;;;10.76;100.00;101872.63;5142149;27;20062;-63
2022/05/21 04:39:02;;;;;;;25.58;9.10;;;;;;;10.85;100.00;101873.66;5137911;27;20031;-63
2022/05/21 04:41:27;;;;;;;26.23;8.95;;;;;;;10.81;100.00;101876.22;5138413;27;20041;-64
2022/05/21 04:43:53;;;;;;;25.60;9.25;;;;;;;10.81;100.00;101881.53;5138273;27;20030;-63
2022/05/21 04:46:20;;;;;;;26.08;10.88;;;;;;;10.79;100.00;101880.63;5140863;27;20031;-64
2022/05/21 04:48:46;;;;;;;26.60;11.18;;;;;;;10.79;100.00;101883.25;5140903;27;20034;-64
2022/05/21 04:51:13;;;;;;;25.58;10.82;;;;;;;10.82;100.00;101883.31;5137830;27;20386;-64
2022/05/21 04:53:38;;;;;;;26.13;10.18;;;;;;;10.82;100.00;101883.31;5137083;27;20385;-68
2022/05/21 04:56:05;;;;;;;26.98;10.88;;;;;;;10.85;100.00;101887.78;5134932;27;20454;-64
2022/05/21 04:58:32;;;;;;;26.23;10.88;;;;;;;10.86;100.00;101886.91;5140630;27;20022;-69
2022/05/21 05:00:57;;;;;;;26.02;10.98;;;;;;;10.87;100.00;101879.88;5142874;27;20423;-68
2022/05/21 05:03:23;;;;;;;29.38;10.90;;;;;;;10.86;100.00;101888.66;5142314;27;20070;-66
2022/05/21 05:05:49;;;;;;;25.52;11.05;;;;;;;10.90;100.00;101893.16;5142894;27;20054;-68
2022/05/21 05:08:17;;;;;;;27.98;11.65;;;;;;;10.91;100.00;101895.84;5140023;27;20406;-63
2022/05/21 05:10:43;;;;;;;27.92;12.30;;;;;;;10.93;100.00;101899.38;5138848;27;20446;-64
2022/05/21 05:13:09;;;;;;;29.17;12.20;;;;;;;10.97;100.00;101897.72;5141592;27;20490;-66
2022/05/21 05:15:35;;;;;;;30.00;13.15;;;;;;;11.08;100.00;101893.53;5139533;27;20465;-64
2022/05/21 05:18:04;;;;;;;29.65;13.00;;;;;;;11.09;100.00;101895.28;5139542;27;20030;-65
2022/05/21 05:20:29;;;;;;;30.63;13.63;;;;;;;11.17;100.00;101908.69;5137346;27;20030;-64
2022/05/21 05:22:55;;;;;;;31.08;14.10;;;;;;;11.20;100.00;101906.09;5141830;27;20038;-64
2022/05/21 05:25:21;;;;;;;29.88;14.32;;;;;;;11.21;100.00;101904.31;5136094;27;20019;-66
2022/05/21 05:27:47;;;;;;;30.75;13.63;;;;;;;11.21;100.00;101907.84;5137019;27;20034;-64
2022/05/21 05:30:14;;;;;;;30.02;13.38;;;;;;;11.28;100.00;101900.94;5119088;27;20439;-64
2022/05/21 05:32:40;;;;;;;30.92;13.77;;;;;;;11.34;100.00;101908.97;5140977;27;20019;-65
2022/05/21 05:35:06;;;;;;;31.05;13.90;;;;;;;11.34;100.00;101919.56;5135340;27;20023;-62
2022/05/21 05:37:31;;;;;;;31.70;14.38;;;;;;;11.31;100.00;101919.50;5139384;27;20026;-65
2022/05/21 05:39:57;;;;;;;30.70;14.98;;;;;;;11.35;100.00;101916.06;5137822;27;20027;-63
2022/05/21 05:42:23;;;;;;;31.27;15.30;;;;;;;11.45;100.00;101912.72;5136839;27;20019;-63
2022/05/21 05:44:48;;;;;;;33.28;15.85;;;;;;;11.51;100.00;101917.22;5137166;27;20020;-63
2022/05/21 05:47:14;;;;;;;32.65;15.02;;;;;;;11.54;100.00;101917.28;5138500;27;20573;-62
2022/05/21 05:49:39;;;;;;;31.08;15.60;;;;;;;11.57;100.00;101924.38;5135810;27;20106;-63
2022/05/21 05:52:05;;;;;;;32.25;15.30;;;;;;;11.52;100.00;101922.53;5136507;27;20029;-63
2022/05/21 05:54:33;;;;;;;31.70;15.15;;;;;;;11.61;100.00;101926.22;5138756;27;20022;-64
2022/05/21 05:56:58;;;;;;;31.40;15.27;;;;;;;11.66;100.00;101927.19;5135994;27;20023;-63
2022/05/21 06:04:52;;;;;;;30.98;16.08;;;;;;;11.55;100.00;101927.00;5137603;27;20557;-63
2022/05/21 06:07:17;;;;;;;29.83;16.15;;;;;;;11.55;100.00;101932.31;5137467;27;20055;-63
2022/05/21 06:09:43;;;;;;;34.08;17.70;;;;;;;11.57;100.00;101924.38;5134255;27;20098;-62
2022/05/21 06:12:09;;;;;;;33.85;17.15;;;;;;;11.53;100.00;101931.38;5139921;27;20451;-63
2022/05/21 06:14:35;;;;;;;30.63;17.45;;;;;;;11.58;100.00;101940.31;5136316;27;20027;-62
2022/05/21 06:17:01;;;;;;;32.35;16.88;;;;;;;11.66;100.00;101940.44;5139265;27;20019;-62
2022/05/21 06:19:27;;;;;;;30.80;16.30;;;;;;;11.72;100.00;101935.22;5135780;27;20508;-63
2022/05/21 06:22:00;;;;;;;33.40;16.92;;;;;;;11.86;100.00;101930.19;5136620;27;20062;-62
2022/05/21 06:24:25;;;;;;;32.47;16.48;;;;;;;11.97;100.00;101933.00;5143223;27;20019;-63
2022/05/21 06:26:51;;;;;;;32.40;16.83;;;;;;;11.92;100.00;101939.97;5139693;27;20041;-62
2022/05/21 06:29:16;;;;;;;32.97;17.08;;;;;;;11.81;100.00;101947.75;5138140;27;20023;-62
2022/05/21 06:31:42;;;;;;;36.08;18.10;;;;;;;11.78;100.00;101950.34;5137862;27;20023;-64
2022/05/21 06:34:08;;;;;;;33.72;17.48;;;;;;;11.90;100.00;101947.00;5135802;27;20046;-63
2022/05/21 06:36:33;;;;;;;30.92;17.33;;;;;;;12.16;100.00;101943.06;5132909;27;20046;-64
2022/05/21 06:38:58;;;;;;;34.35;17.88;;;;;;;12.37;100.00;101945.13;5136214;27;20031;-64
2022/05/21 06:41:24;;;;;;;31.30;16.38;;;;;;;12.44;100.00;101951.41;5138971;27;20175;-65
2022/05/21 06:43:49;;;;;;;34.33;17.52;;;;;;;12.45;100.00;101963.81;5136156;27;20024;-64
2022/05/21 06:46:14;;;;;;;33.75;17.55;;;;;;;12.53;100.00;101956.84;5141734;27;20035;-65
2022/05/21 06:48:40;;;;;;;31.67;17.73;;;;;;;12.60;100.00;101960.47;5138888;27;20019;-62
2022/05/21 06:51:08;;;;;;;32.72;16.65;;;;;;;12.76;100.00;101969.53;5134966;27;20019;-64
2022/05/21 06:53:35;;;;;;;33.97;18.35;;;;;;;12.98;100.00;101965.38;5136238;27;20027;-64
2022/05/21 06:56:05;;;;;;;31.77;16.02;;;;;;;13.22;100.00;101961.22;5139778;27;20102;-64
2022/05/21 06:58:31;;;;;;;31.17;16.42;;;;;;;13.28;100.00;101958.66;5121593;27;20038;-64
2022/05/21 07:00:56;;;;;;;33.45;16.27;;;;;;;13.31;100.00;101968.41;5140304;27;20378;-63
2022/05/21 07:03:21;;;;;;;32.50;15.75;;;;;;;13.17;100.00;101973.56;5134980;27;20068;-63
2022/05/21 07:08:31;;;;;;;32.97;17.20;;;;;;;13.25;100.00;101975.44;5143235;27;20058;-63
2022/05/21 07:10:56;;;;;;;34.47;18.63;;;;;;;13.27;100.00;101977.22;5141417;27;20466;-63
2022/05/21 07:13:23;;;;;;;31.75;17.73;;;;;;;13.36;100.00;101972.91;5144304;27;20069;-62
2022/05/21 07:15:49;;;;;;;32.03;17.55;;;;;;;13.55;100.00;101967.81;5141406;27;20134;-63
2022/05/21 07:18:17;;;;;;;31.52;16.58;;;;;;;13.69;100.00;101987.44;5145933;27;20034;-63
2022/05/21 07:20:42;;;;;;;33.22;16.17;;;;;;;13.59;100.00;101985.56;5143190;27;20486;-63
2022/05/21 07:23:08;;;;;;;34.00;17.70;;;;;;;13.49;100.00;101984.56;5139552;27;20041;-63
2022/05/21 07:25:33;;;;;;;29.98;15.68;;;;;;;13.58;100.00;101997.94;5140028;27;20505;-62
2022/05/21 07:27:59;;;;;;;32.33;16.98;;;;;;;13.57;100.00;101998.84;5138704;27;20381;-63
2022/05/21 07:30:25;;;;;;;30.92;17.00;;;;;;;13.67;100.00;101989.16;5142813;27;20357;-62
2022/05/21 07:32:50;;;;;;;33.50;18.05;;;;;;;13.73;100.00;101997.22;5140165;27;20022;-63
2022/05/21 07:35:18;;;;;;;30.77;16.85;;;;;;;13.82;100.00;101988.44;5139982;27;20061;-63
2022/05/21 07:37:43;;;;;;;31.98;17.40;;;;;;;13.94;100.00;101993.84;5137492;27;20557;-62
2022/05/21 07:40:10;;;;;;;31.27;15.95;;;;;;;13.99;100.00;102001.84;5137093;27;20102;-62
2022/05/21 07:42:36;;;;;;;31.10;16.30;;;;;;;14.07;100.00;102000.16;5141031;27;20070;-62
2022/05/21 07:45:03;;;;;;;32.90;16.75;;;;;;;13.88;100.00;101999.13;5142202;27;20526;-63
2022/05/21 07:47:28;;;;;;;33.25;16.27;;;;;;;13.71;100.00;102000.72;5140521;27;20159;-62
2022/05/21 07:49:57;;;;;;;30.92;16.48;;;;;;;13.84;100.00;102002.63;5143709;27;20046;-64
2022/05/21 07:52:24;;;;;;;29.98;16.15;;;;;;;14.12;100.00;102013.50;5143323;27;20105;-62
2022/05/21 07:54:49;;;;;;;33.58;16.52;;;;;;;14.16;100.00;102010.00;5139990;27;20053;-63
2022/05/21 07:57:14;;;;;;;30.88;16.40;;;;;;;14.46;100.00;101996.03;5139039;27;20055;-63
2022/05/21 07:59:41;;;;;;;31.73;15.55;;;;;;;14.67;100.00;101993.53;5140779;27;20061;-63
2022/05/21 08:02:11;;;;;;;30.20;15.70;;;;;;;14.88;100.00;101998.97;5141797;27;20019;-63
2022/05/21 08:04:37;;;;;;;29.60;14.27;;;;;;;14.82;100.00;102002.47;5143813;27;20023;-63
2022/05/21 08:07:02;;;;;;;25.30;9.90;;;;;;;14.62;100.00;102007.69;5142545;27;20488;-63
2022/05/21 08:09:28;;;;;;;25.33;11.48;;;;;;;14.62;100.00;102013.00;5145727;27;20027;-63
2022/05/21 08:11:54;;;;;;;27.38;11.93;;;;;;;14.81;100.00;102015.78;5137808;27;20102;-63
2022/05/21 08:14:20;;;;;;;27.08;11.73;;;;;;;15.04;100.00;102017.66;5139375;27;20022;-65
2022/05/21 08:16:45;;;;;;;26.05;12.13;;;;;;;15.04;100.00;102022.97;5139670;27;20030;-63
2022/05/21 08:19:12;;;;;;;27.92;11.65;;;;;;;15.21;100.00;102013.28;5139937;27;20047;-63
2022/05/21 08:21:38;;;;;;;27.23;11.93;;;;;;;15.32;100.00;102024.88;5136305;27;20046;-63
2022/05/21 08:26:57;;;;;;;26.30;13.27;;;;;;;15.37;100.00;102024.88;5139325;27;20450;-62
2022/05/21 08:29:24;;;;;;;27.55;13.10;;;;;;;15.50;100.00;102020.47;5139519;27;20105;-63
2022/05/21 08:31:50;;;;;;;27.40;12.30;;;;;;;15.69;100.00;102027.63;5137268;27;20058;-63
2022/05/21 08:34:15;;;;;;;26.88;12.25;;;;;;;15.69;100.00;102011.63;5137417;27;20053;-63
2022/05/21 08:36:41;;;;;;;27.88;11.90;;;;;;;15.75;100.00;102020.53;5141249;27;20026;-63
2022/05/21 08:39:09;;;;;;;29.00;12.75;;;;;;;15.84;100.00;102033.91;5139545;27;20526;-63
2022/05/21 08:41:38;;;;;;;26.63;12.43;;;;;;;15.59;100.00;102020.50;5134290;27;20373;-63
2022/05/21 08:44:12;;;;;;;26.77;11.38;;;;;;;15.58;100.00;102033.81;5142678;27;20038;-63
2022/05/21 08:46:59;;;;;;;27.05;12.73;;;;;;;15.53;100.00;102028.47;5140675;27;20122;-63
2022/05/21 08:49:33;;;;;;;27.52;13.95;;;;;;;15.46;100.00;102032.00;5136933;27;20034;-63
2022/05/21 08:52:17;;;;;;;28.23;13.05;;;;;;;15.84;100.00;102029.47;5142892;27;20024;-65
2022/05/21 08:54:46;;;;;;;27.40;13.50;;;;;;;16.03;100.00;102033.03;5131237;27;20026;-63
2022/05/21 08:57:21;;;;;;;28.55;16.02;;;;;;;16.10;100.00;102036.59;5139624;27;20047;-65
2022/05/21 08:59:53;;;;;;;26.17;13.15;;;;;;;15.90;100.00;102025.03;5137624;27;20023;-63
2022/05/21 09:02:33;;;;;;;27.10;13.00;;;;;;;15.83;100.00;102026.81;5138558;27;20034;-66
2022/05/21 09:04:59;;;;;;;26.35;12.85;;;;;;;15.78;100.00;102013.44;5142288;27;20025;-66
2022/05/21 09:07:38;;;;;;;26.75;12.63;;;;;;;16.06;100.00;102012.59;5136717;27;20033;-64
2022/05/21 09:10:41;;;;;;;24.38;10.57;;;;;;;16.61;100.00;102025.88;5140302;27;20014;-63
2022/05/21 09:13:39;;;;;;;23.95;9.40;;;;;;;16.81;100.00;102012.47;5138650;27;20480;-63
2022/05/21 09:18:49;;;;;;;25.33;13.18;;;;;;;17.21;100.00;102017.72;5134630;27;20054;-63
2022/05/21 09:21:19;;;;;;;28.08;12.30;;;;;;;16.79;100.00;102016.94;5139978;27;20031;-63
2022/05/21 09:23:50;;;;;;;26.80;12.00;;;;;;;16.41;100.00;102007.25;5139421;27;20363;-66
2022/05/21 09:26:18;;;;;;;26.60;12.02;;;;;;;16.45;100.00;102006.31;5139359;27;20080;-69
2022/05/21 09:28:43;;;;;;;25.15;11.02;;;;;;;16.50;100.00;102001.00;5135937;27;20128;-66
2022/05/21 09:31:10;;;;;;;26.02;11.32;;;;;;;16.19;100.00;101996.59;5138487;27;20028;-69
2022/05/21 09:33:45;;;;;;;25.75;11.88;;;;;;;16.11;100.00;102009.03;5137257;27;20470;-65
2022/05/21 09:36:31;;;;;;;25.13;9.95;;;;;;;15.95;100.00;102008.13;5139785;27;20109;-65
2022/05/21 09:38:57;;;;;;;27.20;10.73;;;;;;;15.93;100.00;102011.69;5131730;27;20388;-65
2022/05/21 09:41:27;;;;;;;23.65;10.55;;;;;;;16.26;100.00;102026.81;5133352;27;20026;-71
2022/05/21 09:46:41;;;;;;;25.08;9.50;;;;;;;16.83;100.00;102009.78;5136984;27;20534;-65
2022/05/21 09:49:26;;;;;;;25.23;9.70;;;;;;;16.35;100.00;102013.47;5137798;27;20019;-65
2022/05/21 09:51:54;;;;;;;24.63;8.70;;;;;;;16.12;100.00;102023.25;5136690;27;20444;-65
2022/05/21 09:54:26;;;;;;;24.45;8.63;;;;;;;15.81;100.00;102029.47;5134654;27;20023;-65
2022/05/21 09:56:53;;;;;;;;;;;;;;;15.88;100.00;102024.13;5140200;27;20023;-65
2022/05/21 09:59:24;;;;;;;24.10;8.65;;;;;;;17.11;100.00;102021.31;5140612;27;19910;-64
2022/05/21 10:01:57;;;;;;;26.98;8.88;;;;;;;17.05;100.00;102014.22;5136613;27;20072;-63
2022/05/21 10:04:35;;;;;;;22.75;8.13;;;;;;;17.89;100.00;102022.63;5141968;27;20079;-64
2022/05/21 10:07:03;;;;;;;22.30;7.95;;;;;;;18.70;100.00;102003.16;5139712;27;20062;-63
2022/05/21 10:12:45;;;;;;;23.20;8.45;;;;;;;17.45;100.00;102025.59;5075000;28;20028;-63
2022/05/21 10:15:15;;;;;;;24.10;10.65;;;;;;;16.83;100.00;102028.50;5077332;28;20032;-63
2022/05/21 10:17:45;;;;;;;24.90;10.43;;;;;;;16.64;100.00;102031.19;5063956;28;20052;-64
2022/05/21 10:20:20;;;;;;;25.92;10.95;;;;;;;16.63;100.00;102029.44;5073904;28;20491;-64
2022/05/21 10:23:04;;;;;;;23.80;8.95;;;;;;;16.78;100.00;102023.16;5075498;28;20395;-64
2022/05/21 10:26:01;;;;;;;23.52;9.00;;;;;;;16.69;100.00;102024.06;5076728;28;20602;-63
2022/05/21 10:28:53;;;;;;;26.58;11.50;;;;;;;16.49;100.00;102028.56;5071477;28;20037;-63
2022/05/21 10:31:26;;;;;;;28.30;12.70;;;;;;;16.55;100.00;102025.88;5074689;28;20480;-64
2022/05/21 10:34:04;;;;;;;27.08;14.00;;;;;;;16.62;100.00;102016.09;5068921;28;20088;-64
2022/05/21 10:36:50;;;;;;;26.75;14.55;;;;;;;16.83;100.00;102021.34;5073635;28;20041;-64
2022/05/21 10:39:19;;;;;;;25.52;11.50;;;;;;;17.85;100.00;102036.91;5074625;28;20369;-64
2022/05/21 10:41:50;;;;;;;24.67;9.85;;;;;;;18.35;100.00;102025.84;5077960;28;20170;-64
2022/05/21 10:44:53;;;;;;;24.67;8.20;;;;;;;19.06;100.00;102022.44;5063996;28;20523;-64
2022/05/21 10:47:27;;;;;;;21.90;7.85;;;;;;;19.87;100.00;102032.97;5081705;28;20033;-64
2022/05/21 10:50:13;;;;;;;21.88;7.60;;;;;;;20.43;97.10;102032.91;5135985;27;20474;-65
2022/05/21 10:53:06;;;;;;;21.80;8.25;;;;;;;18.81;100.00;102028.94;5142209;27;20022;-66
2022/05/21 10:55:48;;;;;;;22.27;8.57;;;;;;;17.88;100.00;102031.56;5139593;27;20027;-67
2022/05/21 10:58:23;;;;;;;24.33;8.55;;;;;;;17.93;100.00;102020.84;5139670;27;20131;-65
2022/05/21 11:01:12;;;;;;;20.08;5.80;;;;;;;18.36;100.00;102038.31;5139418;27;20049;-65
2022/05/21 11:04:09;;;;;;;21.35;6.40;;;;;;;19.22;97.79;102032.06;5016525;28;20116;-65
2022/05/21 11:06:56;;;;;;;20.88;6.50;;;;;;;19.24;98.08;102030.25;5039248;28;20044;-66
2022/05/21 11:09:45;;;;;;;21.08;6.20;;;;;;;18.87;99.37;102028.00;5038676;28;20049;-65
2022/05/21 11:12:13;;;;;;;20.58;6.63;;;;;;;18.46;100.00;102030.22;5036558;28;20472;-63
2022/05/21 11:15:09;;;;;;;21.45;6.72;;;;;;;18.63;100.00;102032.69;5037763;28;20036;-64
2022/05/21 11:17:41;;;;;;;21.92;7.30;;;;;;;18.55;100.00;102041.72;5035525;28;20034;-64
2022/05/21 11:20:16;;;;;;;21.75;7.18;;;;;;;18.22;100.00;102038.47;5036352;28;20154;-64
2022/05/21 11:23:06;;;;;;;24.35;7.65;;;;;;;17.99;100.00;102044.88;5035505;28;20112;-63
2022/05/21 11:25:43;;;;;;;23.00;7.78;;;;;;;18.09;100.00;102041.22;5040056;28;20168;-64
2022/05/21 11:28:18;;;;;;;21.08;6.90;;;;;;;20.41;93.37;102035.63;5037614;28;20034;-64
2022/05/21 11:30:43;;;;;;;19.27;5.22;;;;;;;21.42;81.97;102026.47;5040081;28;20033;-64
2022/05/21 11:38:52;;;;;;;20.17;5.28;;;;;;;20.55;75.23;102028.19;5038013;28;20033;-70
2022/05/21 11:41:27;;;;;;;19.17;4.82;;;;;;;21.08;67.69;102029.88;5096825;27;20097;-67
2022/05/21 11:46:46;;;;;;;20.00;5.30;;;;;;;23.29;62.81;102030.63;5120713;27;20093;-66
2022/05/21 11:49:34;;;;;;;19.80;5.07;;;;;;;22.13;56.59;102030.19;5121198;27;20026;-65
2022/05/21 11:52:25;;;;;;;18.60;5.18;;;;;;;22.27;57.70;102017.25;5118127;27;20055;-69